sensor_id;sensor_type;location;lat;lon;timestamp;P1;durP1;ratioP1;P2;durP2;ratioP2
29370;SDS011;16357;52.188;7.838;2023-11-21T00:01:03;17.83;;;11.43;;
29370;SDS011;16357;52.188;7.838;2023-11-21T00:03:30;19.08;;;11.43;;
29370;SDS011;16357;52.188;7.838;2023-11-21T00:05:57;21.77;;;11.95;;
29370;SDS011;16357;52.188;7.838;2023-11-21T00:08:24;17.63;;;11.32;;
29370;SDS011;16357;52.188;7.838;2023-11-21T00:10:50;20.42;;;12.30;;
29370;SDS011;16357;52.188;7.838;2023-11-21T00:13:17;15.77;;;10.57;;
29370;SDS011;16357;52.188;7.838;2023-11-21T00:15:44;14.85;;;10.40;;
29370;SDS011;16357;52.188;7.838;2023-11-21T00:18:10;15.10;;;10.88;;
29370;SDS011;16357;52.188;7.838;2023-11-21T00:20:37;16.13;;;10.77;;
29370;SDS011;16357;52.188;7.838;2023-11-21T00:23:04;18.95;;;11.43;;
29370;SDS011;16357;52.188;7.838;2023-11-21T00:25:30;13.93;;;10.52;;
29370;SDS011;16357;52.188;7.838;2023-11-21T00:27:58;16.88;;;10.70;;
29370;SDS011;16357;52.188;7.838;2023-11-21T00:30:24;15.90;;;10.48;;
29370;SDS011;16357;52.188;7.838;2023-11-21T00:32:51;17.38;;;11.02;;
29370;SDS011;16357;52.188;7.838;2023-11-21T00:35:17;18.45;;;11.65;;
29370;SDS011;16357;52.188;7.838;2023-11-21T00:37:44;17.58;;;11.55;;
29370;SDS011;16357;52.188;7.838;2023-11-21T00:40:11;17.20;;;10.02;;
29370;SDS011;16357;52.188;7.838;2023-11-21T00:42:38;20.13;;;11.45;;
29370;SDS011;16357;52.188;7.838;2023-11-21T00:45:06;21.38;;;12.60;;
29370;SDS011;16357;52.188;7.838;2023-11-21T00:47:33;18.33;;;11.60;;
29370;SDS011;16357;52.188;7.838;2023-11-21T00:50:00;18.48;;;12.18;;
29370;SDS011;16357;52.188;7.838;2023-11-21T00:52:26;17.65;;;11.10;;
29370;SDS011;16357;52.188;7.838;2023-11-21T00:54:53;18.48;;;11.02;;
29370;SDS011;16357;52.188;7.838;2023-11-21T00:57:20;18.83;;;11.30;;
29370;SDS011;16357;52.188;7.838;2023-11-21T00:59:46;19.90;;;11.93;;
29370;SDS011;16357;52.188;7.838;2023-11-21T01:02:13;17.98;;;11.88;;
29370;SDS011;16357;52.188;7.838;2023-11-21T01:04:39;20.50;;;12.50;;
29370;SDS011;16357;52.188;7.838;2023-11-21T01:07:06;17.52;;;11.43;;
29370;SDS011;16357;52.188;7.838;2023-11-21T01:09:32;20.13;;;11.70;;
29370;SDS011;16357;52.188;7.838;2023-11-21T01:11:59;18.00;;;11.73;;
29370;SDS011;16357;52.188;7.838;2023-11-21T01:14:26;16.85;;;11.55;;
29370;SDS011;16357;52.188;7.838;2023-11-21T01:16:53;18.25;;;13.07;;
29370;SDS011;16357;52.188;7.838;2023-11-21T01:19:20;19.27;;;12.25;;
29370;SDS011;16357;52.188;7.838;2023-11-21T01:21:47;20.85;;;12.52;;
29370;SDS011;16357;52.188;7.838;2023-11-21T01:24:13;18.98;;;11.90;;
29370;SDS011;16357;52.188;7.838;2023-11-21T01:26:40;21.40;;;12.13;;
29370;SDS011;16357;52.188;7.838;2023-11-21T01:29:06;19.70;;;12.07;;
29370;SDS011;16357;52.188;7.838;2023-11-21T01:31:33;23.73;;;12.55;;
29370;SDS011;16357;52.188;7.838;2023-11-21T01:34:00;18.20;;;11.80;;
29370;SDS011;16357;52.188;7.838;2023-11-21T01:36:30;23.35;;;12.98;;
29370;SDS011;16357;52.188;7.838;2023-11-21T01:39:00;19.00;;;11.65;;
29370;SDS011;16357;52.188;7.838;2023-11-21T01:41:27;17.25;;;11.10;;
29370;SDS011;16357;52.188;7.838;2023-11-21T01:43:55;18.98;;;12.65;;
29370;SDS011;16357;52.188;7.838;2023-11-21T01:46:22;18.20;;;12.63;;
29370;SDS011;16357;52.188;7.838;2023-11-21T01:48:49;19.02;;;13.15;;
29370;SDS011;16357;52.188;7.838;2023-11-21T01:51:19;24.48;;;13.40;;
29370;SDS011;16357;52.188;7.838;2023-11-21T01:53:45;22.05;;;13.25;;
29370;SDS011;16357;52.188;7.838;2023-11-21T01:56:13;23.92;;;13.07;;
29370;SDS011;16357;52.188;7.838;2023-11-21T01:58:40;19.27;;;12.60;;
29370;SDS011;16357;52.188;7.838;2023-11-21T02:01:08;19.65;;;12.45;;
29370;SDS011;16357;52.188;7.838;2023-11-21T02:03:36;22.10;;;12.90;;
29370;SDS011;16357;52.188;7.838;2023-11-21T02:06:02;19.20;;;13.40;;
29370;SDS011;16357;52.188;7.838;2023-11-21T02:08:29;21.52;;;12.77;;
29370;SDS011;16357;52.188;7.838;2023-11-21T02:10:55;23.15;;;12.43;;
29370;SDS011;16357;52.188;7.838;2023-11-21T02:13:23;17.00;;;11.85;;
29370;SDS011;16357;52.188;7.838;2023-11-21T02:15:50;16.52;;;11.52;;
29370;SDS011;16357;52.188;7.838;2023-11-21T02:18:18;19.25;;;11.60;;
29370;SDS011;16357;52.188;7.838;2023-11-21T02:20:45;15.57;;;11.20;;
29370;SDS011;16357;52.188;7.838;2023-11-21T02:23:12;16.23;;;11.50;;
29370;SDS011;16357;52.188;7.838;2023-11-21T02:25:39;17.95;;;12.20;;
29370;SDS011;16357;52.188;7.838;2023-11-21T02:28:05;20.13;;;11.35;;
29370;SDS011;16357;52.188;7.838;2023-11-21T02:30:33;18.70;;;12.15;;
29370;SDS011;16357;52.188;7.838;2023-11-21T02:33:00;18.25;;;12.50;;
29370;SDS011;16357;52.188;7.838;2023-11-21T02:35:28;17.40;;;11.48;;
29370;SDS011;16357;52.188;7.838;2023-11-21T02:37:57;18.85;;;11.98;;
29370;SDS011;16357;52.188;7.838;2023-11-21T02:40:24;15.77;;;11.30;;
29370;SDS011;16357;52.188;7.838;2023-11-21T02:42:53;16.95;;;11.75;;
29370;SDS011;16357;52.188;7.838;2023-11-21T02:45:20;19.00;;;12.82;;
29370;SDS011;16357;52.188;7.838;2023-11-21T02:47:47;19.40;;;12.10;;
29370;SDS011;16357;52.188;7.838;2023-11-21T02:50:20;17.17;;;11.73;;
29370;SDS011;16357;52.188;7.838;2023-11-21T02:52:46;20.33;;;12.73;;
29370;SDS011;16357;52.188;7.838;2023-11-21T02:55:13;17.25;;;11.90;;
29370;SDS011;16357;52.188;7.838;2023-11-21T02:57:40;16.80;;;11.73;;
29370;SDS011;16357;52.188;7.838;2023-11-21T03:00:07;17.95;;;12.35;;
29370;SDS011;16357;52.188;7.838;2023-11-21T03:02:34;18.23;;;12.60;;
29370;SDS011;16357;52.188;7.838;2023-11-21T03:05:06;21.42;;;12.52;;
29370;SDS011;16357;52.188;7.838;2023-11-21T03:07:33;21.58;;;12.82;;
29370;SDS011;16357;52.188;7.838;2023-11-21T03:09:59;19.15;;;11.50;;
29370;SDS011;16357;52.188;7.838;2023-11-21T03:12:26;17.90;;;11.60;;
29370;SDS011;16357;52.188;7.838;2023-11-21T03:14:53;18.55;;;11.75;;
29370;SDS011;16357;52.188;7.838;2023-11-21T03:17:20;16.70;;;11.55;;
29370;SDS011;16357;52.188;7.838;2023-11-21T03:19:47;17.52;;;12.75;;
29370;SDS011;16357;52.188;7.838;2023-11-21T03:22:13;16.67;;;11.77;;
29370;SDS011;16357;52.188;7.838;2023-11-21T03:24:40;22.67;;;13.73;;
29370;SDS011;16357;52.188;7.838;2023-11-21T03:27:06;20.80;;;12.52;;
29370;SDS011;16357;52.188;7.838;2023-11-21T03:29:34;20.85;;;12.30;;
29370;SDS011;16357;52.188;7.838;2023-11-21T03:32:00;20.23;;;12.82;;
29370;SDS011;16357;52.188;7.838;2023-11-21T03:34:28;19.63;;;12.30;;
29370;SDS011;16357;52.188;7.838;2023-11-21T03:36:54;22.00;;;13.30;;
29370;SDS011;16357;52.188;7.838;2023-11-21T03:39:21;15.98;;;11.57;;
29370;SDS011;16357;52.188;7.838;2023-11-21T03:41:48;18.80;;;12.18;;
29370;SDS011;16357;52.188;7.838;2023-11-21T03:44:15;18.30;;;12.65;;
29370;SDS011;16357;52.188;7.838;2023-11-21T03:46:41;20.50;;;12.10;;
29370;SDS011;16357;52.188;7.838;2023-11-21T03:49:08;19.75;;;12.63;;
29370;SDS011;16357;52.188;7.838;2023-11-21T03:51:34;17.90;;;13.13;;
29370;SDS011;16357;52.188;7.838;2023-11-21T03:54:01;23.80;;;13.70;;
29370;SDS011;16357;52.188;7.838;2023-11-21T03:56:28;19.75;;;12.52;;
29370;SDS011;16357;52.188;7.838;2023-11-21T03:58:54;22.27;;;13.35;;
29370;SDS011;16357;52.188;7.838;2023-11-21T04:01:24;18.70;;;12.50;;
29370;SDS011;16357;52.188;7.838;2023-11-21T04:03:51;19.52;;;12.80;;
29370;SDS011;16357;52.188;7.838;2023-11-21T04:06:18;26.50;;;13.25;;
29370;SDS011;16357;52.188;7.838;2023-11-21T04:08:44;19.25;;;12.50;;
29370;SDS011;16357;52.188;7.838;2023-11-21T04:11:11;21.70;;;12.95;;
29370;SDS011;16357;52.188;7.838;2023-11-21T04:13:38;21.67;;;13.40;;
29370;SDS011;16357;52.188;7.838;2023-11-21T04:16:06;21.25;;;12.70;;
29370;SDS011;16357;52.188;7.838;2023-11-21T04:18:35;24.58;;;13.77;;
29370;SDS011;16357;52.188;7.838;2023-11-21T04:21:03;23.27;;;13.98;;
29370;SDS011;16357;52.188;7.838;2023-11-21T04:23:31;34.83;;;15.90;;
29370;SDS011;16357;52.188;7.838;2023-11-21T04:25:58;30.25;;;15.40;;
29370;SDS011;16357;52.188;7.838;2023-11-21T04:28:25;27.00;;;13.60;;
29370;SDS011;16357;52.188;7.838;2023-11-21T04:30:51;32.78;;;14.88;;
29370;SDS011;16357;52.188;7.838;2023-11-21T04:33:18;30.23;;;14.68;;
29370;SDS011;16357;52.188;7.838;2023-11-21T04:35:44;29.27;;;16.27;;
29370;SDS011;16357;52.188;7.838;2023-11-21T04:38:12;28.98;;;14.98;;
29370;SDS011;16357;52.188;7.838;2023-11-21T04:40:39;28.52;;;14.23;;
29370;SDS011;16357;52.188;7.838;2023-11-21T04:43:05;32.00;;;15.05;;
29370;SDS011;16357;52.188;7.838;2023-11-21T04:45:32;28.92;;;15.35;;
29370;SDS011;16357;52.188;7.838;2023-11-21T04:47:58;27.33;;;14.93;;
29370;SDS011;16357;52.188;7.838;2023-11-21T04:50:25;36.00;;;16.55;;
29370;SDS011;16357;52.188;7.838;2023-11-21T04:52:53;30.15;;;15.38;;
29370;SDS011;16357;52.188;7.838;2023-11-21T04:55:20;34.33;;;16.02;;
29370;SDS011;16357;52.188;7.838;2023-11-21T04:57:46;48.00;;;17.48;;
29370;SDS011;16357;52.188;7.838;2023-11-21T05:00:13;33.75;;;17.30;;
29370;SDS011;16357;52.188;7.838;2023-11-21T05:02:40;34.28;;;17.02;;
29370;SDS011;16357;52.188;7.838;2023-11-21T05:05:08;31.85;;;15.68;;
29370;SDS011;16357;52.188;7.838;2023-11-21T05:07:36;37.70;;;17.55;;
29370;SDS011;16357;52.188;7.838;2023-11-21T05:10:06;39.72;;;18.08;;
29370;SDS011;16357;52.188;7.838;2023-11-21T05:12:36;33.30;;;16.23;;
29370;SDS011;16357;52.188;7.838;2023-11-21T05:15:03;34.38;;;17.13;;
29370;SDS011;16357;52.188;7.838;2023-11-21T05:17:33;38.92;;;17.65;;
29370;SDS011;16357;52.188;7.838;2023-11-21T05:20:01;33.50;;;17.52;;
29370;SDS011;16357;52.188;7.838;2023-11-21T05:22:34;40.08;;;17.17;;
29370;SDS011;16357;52.188;7.838;2023-11-21T05:25:02;39.03;;;17.63;;
29370;SDS011;16357;52.188;7.838;2023-11-21T05:27:30;30.52;;;16.13;;
29370;SDS011;16357;52.188;7.838;2023-11-21T05:30:01;33.70;;;17.25;;
29370;SDS011;16357;52.188;7.838;2023-11-21T05:32:31;46.60;;;18.10;;
29370;SDS011;16357;52.188;7.838;2023-11-21T05:34:59;37.00;;;17.67;;
29370;SDS011;16357;52.188;7.838;2023-11-21T05:37:25;35.78;;;17.80;;
29370;SDS011;16357;52.188;7.838;2023-11-21T05:39:53;33.05;;;17.02;;
29370;SDS011;16357;52.188;7.838;2023-11-21T05:42:22;32.70;;;17.30;;
29370;SDS011;16357;52.188;7.838;2023-11-21T05:44:49;35.25;;;18.33;;
29370;SDS011;16357;52.188;7.838;2023-11-21T05:47:16;34.10;;;17.70;;
29370;SDS011;16357;52.188;7.838;2023-11-21T05:49:44;43.92;;;18.42;;
29370;SDS011;16357;52.188;7.838;2023-11-21T05:52:12;38.80;;;18.45;;
29370;SDS011;16357;52.188;7.838;2023-11-21T05:54:38;37.72;;;19.13;;
29370;SDS011;16357;52.188;7.838;2023-11-21T05:57:04;37.80;;;18.42;;
29370;SDS011;16357;52.188;7.838;2023-11-21T05:59:31;33.35;;;16.98;;
29370;SDS011;16357;52.188;7.838;2023-11-21T06:01:57;50.63;;;18.05;;
29370;SDS011;16357;52.188;7.838;2023-11-21T06:04:25;39.20;;;18.38;;
29370;SDS011;16357;52.188;7.838;2023-11-21T06:06:52;34.92;;;18.08;;
29370;SDS011;16357;52.188;7.838;2023-11-21T06:09:19;36.63;;;18.27;;
29370;SDS011;16357;52.188;7.838;2023-11-21T06:11:45;35.10;;;18.65;;
29370;SDS011;16357;52.188;7.838;2023-11-21T06:14:12;49.03;;;20.33;;
29370;SDS011;16357;52.188;7.838;2023-11-21T06:16:38;41.65;;;19.90;;
29370;SDS011;16357;52.188;7.838;2023-11-21T06:19:06;33.88;;;16.83;;
29370;SDS011;16357;52.188;7.838;2023-11-21T06:21:33;41.30;;;17.33;;
29370;SDS011;16357;52.188;7.838;2023-11-21T06:24:00;32.00;;;16.42;;
29370;SDS011;16357;52.188;7.838;2023-11-21T06:26:27;30.55;;;15.93;;
29370;SDS011;16357;52.188;7.838;2023-11-21T06:28:54;30.80;;;15.70;;
29370;SDS011;16357;52.188;7.838;2023-11-21T06:31:21;27.13;;;15.82;;
29370;SDS011;16357;52.188;7.838;2023-11-21T06:33:48;30.65;;;16.20;;
29370;SDS011;16357;52.188;7.838;2023-11-21T06:36:14;32.70;;;15.52;;
29370;SDS011;16357;52.188;7.838;2023-11-21T06:38:41;27.65;;;15.35;;
29370;SDS011;16357;52.188;7.838;2023-11-21T06:41:07;27.35;;;15.77;;
29370;SDS011;16357;52.188;7.838;2023-11-21T06:43:34;44.15;;;17.00;;
29370;SDS011;16357;52.188;7.838;2023-11-21T06:46:01;39.08;;;16.13;;
29370;SDS011;16357;52.188;7.838;2023-11-21T06:48:27;29.75;;;15.98;;
29370;SDS011;16357;52.188;7.838;2023-11-21T06:50:54;42.85;;;17.35;;
29370;SDS011;16357;52.188;7.838;2023-11-21T06:53:20;26.80;;;15.65;;
29370;SDS011;16357;52.188;7.838;2023-11-21T06:55:47;38.78;;;16.38;;
29370;SDS011;16357;52.188;7.838;2023-11-21T06:58:13;34.40;;;16.70;;
29370;SDS011;16357;52.188;7.838;2023-11-21T07:00:41;28.40;;;15.18;;
29370;SDS011;16357;52.188;7.838;2023-11-21T07:03:12;27.98;;;15.82;;
29370;SDS011;16357;52.188;7.838;2023-11-21T07:05:39;31.70;;;16.27;;
29370;SDS011;16357;52.188;7.838;2023-11-21T07:08:05;32.25;;;16.00;;
29370;SDS011;16357;52.188;7.838;2023-11-21T07:10:33;25.05;;;14.88;;
29370;SDS011;16357;52.188;7.838;2023-11-21T07:13:01;25.10;;;14.43;;
29370;SDS011;16357;52.188;7.838;2023-11-21T07:15:27;24.65;;;15.32;;
29370;SDS011;16357;52.188;7.838;2023-11-21T07:17:54;27.73;;;15.48;;
29370;SDS011;16357;52.188;7.838;2023-11-21T07:20:21;25.25;;;14.18;;
29370;SDS011;16357;52.188;7.838;2023-11-21T07:22:47;26.75;;;14.43;;
29370;SDS011;16357;52.188;7.838;2023-11-21T07:25:14;31.48;;;15.75;;
29370;SDS011;16357;52.188;7.838;2023-11-21T07:27:43;24.77;;;14.75;;
29370;SDS011;16357;52.188;7.838;2023-11-21T07:30:10;23.88;;;13.90;;
29370;SDS011;16357;52.188;7.838;2023-11-21T07:32:38;23.50;;;14.15;;
29370;SDS011;16357;52.188;7.838;2023-11-21T07:35:07;23.42;;;13.60;;
29370;SDS011;16357;52.188;7.838;2023-11-21T07:37:34;21.02;;;13.00;;
29370;SDS011;16357;52.188;7.838;2023-11-21T07:40:00;21.20;;;12.55;;
29370;SDS011;16357;52.188;7.838;2023-11-21T07:42:27;24.00;;;13.73;;
29370;SDS011;16357;52.188;7.838;2023-11-21T07:44:53;22.23;;;13.50;;
29370;SDS011;16357;52.188;7.838;2023-11-21T07:47:20;19.55;;;12.65;;
29370;SDS011;16357;52.188;7.838;2023-11-21T07:49:47;22.08;;;13.15;;
29370;SDS011;16357;52.188;7.838;2023-11-21T07:52:13;21.48;;;13.02;;
29370;SDS011;16357;52.188;7.838;2023-11-21T07:54:42;23.48;;;12.27;;
29370;SDS011;16357;52.188;7.838;2023-11-21T07:57:09;19.92;;;12.18;;
29370;SDS011;16357;52.188;7.838;2023-11-21T07:59:40;18.52;;;11.85;;
29370;SDS011;16357;52.188;7.838;2023-11-21T08:02:07;17.63;;;11.27;;
29370;SDS011;16357;52.188;7.838;2023-11-21T08:04:33;18.45;;;11.48;;
29370;SDS011;16357;52.188;7.838;2023-11-21T08:07:01;16.75;;;10.23;;
29370;SDS011;16357;52.188;7.838;2023-11-21T08:09:30;16.42;;;10.75;;
29370;SDS011;16357;52.188;7.838;2023-11-21T08:11:56;16.30;;;10.00;;
29370;SDS011;16357;52.188;7.838;2023-11-21T08:14:23;14.52;;;8.85;;
29370;SDS011;16357;52.188;7.838;2023-11-21T08:16:51;18.17;;;10.50;;
29370;SDS011;16357;52.188;7.838;2023-11-21T08:19:18;17.08;;;11.05;;
29370;SDS011;16357;52.188;7.838;2023-11-21T08:21:45;16.50;;;10.18;;
29370;SDS011;16357;52.188;7.838;2023-11-21T08:24:12;20.48;;;12.05;;
29370;SDS011;16357;52.188;7.838;2023-11-21T08:26:38;17.73;;;11.43;;
29370;SDS011;16357;52.188;7.838;2023-11-21T08:29:04;16.92;;;10.80;;
29370;SDS011;16357;52.188;7.838;2023-11-21T08:31:33;21.55;;;12.95;;
29370;SDS011;16357;52.188;7.838;2023-11-21T08:34:00;18.02;;;12.00;;
29370;SDS011;16357;52.188;7.838;2023-11-21T08:36:29;19.05;;;11.80;;
29370;SDS011;16357;52.188;7.838;2023-11-21T08:38:57;18.27;;;11.57;;
29370;SDS011;16357;52.188;7.838;2023-11-21T08:41:24;16.48;;;10.05;;
29370;SDS011;16357;52.188;7.838;2023-11-21T08:43:50;13.90;;;8.95;;
29370;SDS011;16357;52.188;7.838;2023-11-21T08:46:18;14.45;;;8.85;;
29370;SDS011;16357;52.188;7.838;2023-11-21T08:48:46;12.50;;;7.80;;
29370;SDS011;16357;52.188;7.838;2023-11-21T08:51:12;9.93;;;7.22;;
29370;SDS011;16357;52.188;7.838;2023-11-21T08:53:40;11.60;;;7.70;;
29370;SDS011;16357;52.188;7.838;2023-11-21T08:56:06;10.77;;;7.38;;
29370;SDS011;16357;52.188;7.838;2023-11-21T08:58:35;11.23;;;7.70;;
29370;SDS011;16357;52.188;7.838;2023-11-21T09:01:04;12.82;;;8.35;;
29370;SDS011;16357;52.188;7.838;2023-11-21T09:03:31;13.30;;;8.68;;
29370;SDS011;16357;52.188;7.838;2023-11-21T09:06:00;16.52;;;11.05;;
29370;SDS011;16357;52.188;7.838;2023-11-21T09:08:27;14.90;;;9.75;;
29370;SDS011;16357;52.188;7.838;2023-11-21T09:10:55;14.88;;;8.88;;
29370;SDS011;16357;52.188;7.838;2023-11-21T09:13:22;16.55;;;10.20;;
29370;SDS011;16357;52.188;7.838;2023-11-21T09:15:51;15.93;;;10.23;;
29370;SDS011;16357;52.188;7.838;2023-11-21T09:18:17;15.15;;;10.10;;
29370;SDS011;16357;52.188;7.838;2023-11-21T09:20:44;16.95;;;10.77;;
29370;SDS011;16357;52.188;7.838;2023-11-21T09:23:10;20.50;;;10.70;;
29370;SDS011;16357;52.188;7.838;2023-11-21T09:25:37;15.25;;;9.90;;
29370;SDS011;16357;52.188;7.838;2023-11-21T09:28:05;17.38;;;10.43;;
29370;SDS011;16357;52.188;7.838;2023-11-21T09:30:34;17.73;;;10.05;;
29370;SDS011;16357;52.188;7.838;2023-11-21T09:33:01;16.92;;;10.32;;
29370;SDS011;16357;52.188;7.838;2023-11-21T09:35:28;17.73;;;11.50;;
29370;SDS011;16357;52.188;7.838;2023-11-21T09:37:55;17.10;;;11.13;;
29370;SDS011;16357;52.188;7.838;2023-11-21T09:40:22;20.08;;;12.35;;
29370;SDS011;16357;52.188;7.838;2023-11-21T09:42:51;20.42;;;12.18;;
29370;SDS011;16357;52.188;7.838;2023-11-21T09:45:26;18.50;;;11.93;;
29370;SDS011;16357;52.188;7.838;2023-11-21T09:47:55;15.30;;;11.20;;
29370;SDS011;16357;52.188;7.838;2023-11-21T09:50:22;24.50;;;11.57;;
29370;SDS011;16357;52.188;7.838;2023-11-21T09:53:09;23.20;;;11.95;;
29370;SDS011;16357;52.188;7.838;2023-11-21T09:55:44;19.00;;;12.48;;
29370;SDS011;16357;52.188;7.838;2023-11-21T09:58:13;17.05;;;10.85;;
29370;SDS011;16357;52.188;7.838;2023-11-21T10:00:41;15.93;;;10.55;;
29370;SDS011;16357;52.188;7.838;2023-11-21T10:03:12;15.50;;;9.68;;
29370;SDS011;16357;52.188;7.838;2023-11-21T10:05:40;15.88;;;10.68;;
29370;SDS011;16357;52.188;7.838;2023-11-21T10:08:09;19.50;;;13.35;;
29370;SDS011;16357;52.188;7.838;2023-11-21T10:10:36;17.85;;;10.85;;
29370;SDS011;16357;52.188;7.838;2023-11-21T10:13:05;16.83;;;11.15;;
29370;SDS011;16357;52.188;7.838;2023-11-21T10:15:33;16.98;;;10.85;;
29370;SDS011;16357;52.188;7.838;2023-11-21T10:18:04;16.52;;;11.25;;
29370;SDS011;16357;52.188;7.838;2023-11-21T10:20:33;15.52;;;11.30;;
29370;SDS011;16357;52.188;7.838;2023-11-21T10:23:00;17.25;;;11.50;;
29370;SDS011;16357;52.188;7.838;2023-11-21T10:25:32;15.88;;;10.93;;
29370;SDS011;16357;52.188;7.838;2023-11-21T10:27:59;13.88;;;10.70;;
29370;SDS011;16357;52.188;7.838;2023-11-21T10:30:37;14.07;;;10.70;;
29370;SDS011;16357;52.188;7.838;2023-11-21T10:33:05;13.88;;;10.23;;
29370;SDS011;16357;52.188;7.838;2023-11-21T10:35:39;15.45;;;10.27;;
29370;SDS011;16357;52.188;7.838;2023-11-21T10:38:08;10.65;;;8.80;;
29370;SDS011;16357;52.188;7.838;2023-11-21T10:40:40;10.30;;;8.05;;
29370;SDS011;16357;52.188;7.838;2023-11-21T10:43:08;11.93;;;8.45;;
29370;SDS011;16357;52.188;7.838;2023-11-21T10:45:39;12.18;;;7.85;;
29370;SDS011;16357;52.188;7.838;2023-11-21T10:48:06;9.10;;;7.07;;
29370;SDS011;16357;52.188;7.838;2023-11-21T10:50:46;8.82;;;7.43;;
29370;SDS011;16357;52.188;7.838;2023-11-21T10:53:13;8.73;;;7.15;;
29370;SDS011;16357;52.188;7.838;2023-11-21T10:55:41;10.05;;;7.20;;
29370;SDS011;16357;52.188;7.838;2023-11-21T10:58:10;9.70;;;7.35;;
29370;SDS011;16357;52.188;7.838;2023-11-21T11:00:40;7.97;;;6.65;;
29370;SDS011;16357;52.188;7.838;2023-11-21T11:03:07;8.25;;;7.22;;
29370;SDS011;16357;52.188;7.838;2023-11-21T11:05:42;9.38;;;7.63;;
29370;SDS011;16357;52.188;7.838;2023-11-21T11:08:17;9.50;;;8.00;;
29370;SDS011;16357;52.188;7.838;2023-11-21T11:10:45;10.00;;;7.88;;
29370;SDS011;16357;52.188;7.838;2023-11-21T11:13:14;8.60;;;7.18;;
29370;SDS011;16357;52.188;7.838;2023-11-21T11:15:41;9.50;;;6.70;;
29370;SDS011;16357;52.188;7.838;2023-11-21T11:18:09;8.93;;;7.10;;
29370;SDS011;16357;52.188;7.838;2023-11-21T11:20:37;11.52;;;7.07;;
29370;SDS011;16357;52.188;7.838;2023-11-21T11:32:21;7.85;;;6.35;;
29370;SDS011;16357;52.188;7.838;2023-11-21T11:38:05;7.95;;;5.90;;
29370;SDS011;16357;52.188;7.838;2023-11-21T11:40:46;8.32;;;6.65;;
29370;SDS011;16357;52.188;7.838;2023-11-21T11:43:14;10.93;;;7.05;;
29370;SDS011;16357;52.188;7.838;2023-11-21T11:45:51;10.20;;;7.38;;
29370;SDS011;16357;52.188;7.838;2023-11-21T11:48:26;9.77;;;7.30;;
29370;SDS011;16357;52.188;7.838;2023-11-21T11:53:36;9.30;;;7.80;;
29370;SDS011;16357;52.188;7.838;2023-11-21T11:56:25;11.00;;;9.13;;
29370;SDS011;16357;52.188;7.838;2023-11-21T11:58:55;11.32;;;8.18;;
29370;SDS011;16357;52.188;7.838;2023-11-21T12:01:26;10.70;;;8.60;;
29370;SDS011;16357;52.188;7.838;2023-11-21T12:06:43;10.30;;;8.35;;
29370;SDS011;16357;52.188;7.838;2023-11-21T12:09:17;12.48;;;8.55;;
29370;SDS011;16357;52.188;7.838;2023-11-21T12:11:45;11.15;;;8.48;;
29370;SDS011;16357;52.188;7.838;2023-11-21T12:14:13;15.45;;;9.00;;
29370;SDS011;16357;52.188;7.838;2023-11-21T12:16:40;16.63;;;10.20;;
29370;SDS011;16357;52.188;7.838;2023-11-21T12:19:12;13.60;;;9.30;;
29370;SDS011;16357;52.188;7.838;2023-11-21T12:21:39;12.93;;;9.20;;
29370;SDS011;16357;52.188;7.838;2023-11-21T12:24:08;12.50;;;9.50;;
29370;SDS011;16357;52.188;7.838;2023-11-21T12:26:35;13.38;;;9.50;;
29370;SDS011;16357;52.188;7.838;2023-11-21T12:29:05;14.85;;;10.05;;
29370;SDS011;16357;52.188;7.838;2023-11-21T12:31:34;13.77;;;11.13;;
29370;SDS011;16357;52.188;7.838;2023-11-21T12:34:01;14.27;;;10.57;;
29370;SDS011;16357;52.188;7.838;2023-11-21T12:36:28;14.80;;;10.95;;
29370;SDS011;16357;52.188;7.838;2023-11-21T12:38:56;13.52;;;9.77;;
29370;SDS011;16357;52.188;7.838;2023-11-21T12:41:23;12.98;;;9.73;;
29370;SDS011;16357;52.188;7.838;2023-11-21T12:43:49;15.10;;;10.63;;
29370;SDS011;16357;52.188;7.838;2023-11-21T12:46:16;12.55;;;9.90;;
29370;SDS011;16357;52.188;7.838;2023-11-21T12:48:44;13.70;;;10.30;;
29370;SDS011;16357;52.188;7.838;2023-11-21T12:51:12;13.80;;;9.88;;
29370;SDS011;16357;52.188;7.838;2023-11-21T12:53:40;14.82;;;10.45;;
29370;SDS011;16357;52.188;7.838;2023-11-21T12:56:10;14.68;;;10.98;;
29370;SDS011;16357;52.188;7.838;2023-11-21T12:58:38;15.10;;;10.65;;
29370;SDS011;16357;52.188;7.838;2023-11-21T13:01:06;11.55;;;9.63;;
29370;SDS011;16357;52.188;7.838;2023-11-21T13:03:38;11.57;;;8.90;;
29370;SDS011;16357;52.188;7.838;2023-11-21T13:06:06;12.35;;;8.82;;
29370;SDS011;16357;52.188;7.838;2023-11-21T13:08:36;12.15;;;9.23;;
29370;SDS011;16357;52.188;7.838;2023-11-21T13:11:05;13.25;;;9.20;;
29370;SDS011;16357;52.188;7.838;2023-11-21T13:13:32;11.60;;;8.20;;
29370;SDS011;16357;52.188;7.838;2023-11-21T13:16:00;11.20;;;7.72;;
29370;SDS011;16357;52.188;7.838;2023-11-21T13:18:27;11.00;;;7.88;;
29370;SDS011;16357;52.188;7.838;2023-11-21T13:20:56;10.65;;;7.32;;
29370;SDS011;16357;52.188;7.838;2023-11-21T13:23:25;11.15;;;7.57;;
29370;SDS011;16357;52.188;7.838;2023-11-21T13:25:52;10.38;;;7.18;;
29370;SDS011;16357;52.188;7.838;2023-11-21T13:28:30;8.82;;;6.70;;
29370;SDS011;16357;52.188;7.838;2023-11-21T13:31:00;8.90;;;6.57;;
29370;SDS011;16357;52.188;7.838;2023-11-21T13:33:37;11.20;;;7.38;;
29370;SDS011;16357;52.188;7.838;2023-11-21T13:36:09;13.05;;;7.88;;
29370;SDS011;16357;52.188;7.838;2023-11-21T13:38:37;9.93;;;7.22;;
29370;SDS011;16357;52.188;7.838;2023-11-21T13:41:08;10.50;;;7.70;;
29370;SDS011;16357;52.188;7.838;2023-11-21T13:43:36;9.05;;;6.57;;
29370;SDS011;16357;52.188;7.838;2023-11-21T13:46:03;10.30;;;6.85;;
29370;SDS011;16357;52.188;7.838;2023-11-21T13:48:39;11.23;;;6.60;;
29370;SDS011;16357;52.188;7.838;2023-11-21T13:51:13;8.60;;;6.00;;
29370;SDS011;16357;52.188;7.838;2023-11-21T13:53:44;10.20;;;7.03;;
29370;SDS011;16357;52.188;7.838;2023-11-21T13:56:14;13.05;;;8.60;;
29370;SDS011;16357;52.188;7.838;2023-11-21T13:58:45;11.57;;;6.90;;
29370;SDS011;16357;52.188;7.838;2023-11-21T14:01:19;8.73;;;6.50;;
29370;SDS011;16357;52.188;7.838;2023-11-21T14:04:02;9.80;;;6.75;;
29370;SDS011;16357;52.188;7.838;2023-11-21T14:06:46;9.60;;;6.97;;
29370;SDS011;16357;52.188;7.838;2023-11-21T14:09:15;8.32;;;6.32;;
29370;SDS011;16357;52.188;7.838;2023-11-21T14:11:55;8.52;;;6.60;;
29370;SDS011;16357;52.188;7.838;2023-11-21T14:14:26;7.95;;;6.18;;
29370;SDS011;16357;52.188;7.838;2023-11-21T14:16:54;8.50;;;6.03;;
29370;SDS011;16357;52.188;7.838;2023-11-21T14:19:22;9.90;;;6.20;;
29370;SDS011;16357;52.188;7.838;2023-11-21T14:21:54;11.13;;;6.93;;
29370;SDS011;16357;52.188;7.838;2023-11-21T14:24:20;9.45;;;6.32;;
29370;SDS011;16357;52.188;7.838;2023-11-21T14:26:49;10.25;;;7.20;;
29370;SDS011;16357;52.188;7.838;2023-11-21T14:29:17;8.88;;;6.93;;
29370;SDS011;16357;52.188;7.838;2023-11-21T14:31:49;9.43;;;7.07;;
29370;SDS011;16357;52.188;7.838;2023-11-21T14:34:17;8.93;;;6.97;;
29370;SDS011;16357;52.188;7.838;2023-11-21T14:36:48;10.25;;;6.85;;
29370;SDS011;16357;52.188;7.838;2023-11-21T14:39:15;10.35;;;7.55;;
29370;SDS011;16357;52.188;7.838;2023-11-21T14:41:49;10.38;;;7.28;;
29370;SDS011;16357;52.188;7.838;2023-11-21T14:44:16;11.35;;;7.55;;
29370;SDS011;16357;52.188;7.838;2023-11-21T14:46:43;9.68;;;6.82;;
29370;SDS011;16357;52.188;7.838;2023-11-21T14:49:12;9.40;;;6.85;;